Terminal Aerodrome Forecast
Issued by NWS

Home | Current Version | Previous Version | Text Only | Print | Product List | Glossary On
Versions: 1 2 3 4 5 6 7 8 9 10 11 12 13 14 15 16 17 18
000
FTAK31 PAJN 051700
TAFASI
TAF
PASI 051737Z 0518/0618 31007KT P6SM SCT060
     FM052100 27010KT P6SM SCT250
     FM060300 30012KT P6SM SCT200
     FM060800 32007KT P6SM SCT006 SCT200
     FM061000 32005KT P6SM BKN005
     FM061700 31008KT P6SM BKN010=

USA.gov is the U.S. government's official web portal to all federal, state and local government web resources and services.